createdAt,value
2022-11-25T00:00:01.634Z,2.60
2022-11-25T00:04:00.694Z,2.62
2022-11-25T00:07:27.844Z,2.60
2022-11-25T00:10:55.146Z,2.61
2022-11-25T00:14:22.382Z,2.66
2022-11-25T00:17:49.088Z,2.72
2022-11-25T00:21:20.181Z,2.76
2022-11-25T00:24:47.152Z,2.76
2022-11-25T00:28:18.546Z,2.73
2022-11-25T00:31:45.919Z,2.65
2022-11-25T00:35:16.088Z,2.58
2022-11-25T00:38:43.222Z,2.54
2022-11-25T00:42:28.430Z,2.50
2022-11-25T00:45:58.536Z,2.46
2022-11-25T00:49:26.741Z,2.41
2022-11-25T00:52:55.928Z,2.41
2022-11-25T00:56:23.835Z,2.39
2022-11-25T00:59:51.279Z,2.40
2022-11-25T01:03:21.197Z,2.40
2022-11-25T01:06:53.430Z,2.42
2022-11-25T01:10:21.672Z,2.47
2022-11-25T01:13:49.655Z,2.50
2022-11-25T01:17:16.824Z,2.55
2022-11-25T01:20:43.832Z,2.63
2022-11-25T01:24:14.067Z,2.62
2022-11-25T01:27:43.440Z,2.59
2022-11-25T01:31:12.705Z,2.60
2022-11-25T01:34:39.557Z,2.58
2022-11-25T01:38:06.921Z,2.57
2022-11-25T01:41:36.194Z,2.52
2022-11-25T01:45:34.493Z,2.47
2022-11-25T01:49:06.146Z,2.42
2022-11-25T01:52:37.685Z,2.38
2022-11-25T01:56:07.589Z,2.32
2022-11-25T01:59:44.025Z,2.33
2022-11-25T02:03:12.294Z,2.36
2022-11-25T02:06:44.334Z,2.39
2022-11-25T02:10:17.229Z,2.46
2022-11-25T02:13:42.953Z,2.52
2022-11-25T02:17:10.832Z,2.52
2022-11-25T02:20:40.231Z,2.51
2022-11-25T02:24:16.145Z,2.51
2022-11-25T02:27:46.307Z,2.55
2022-11-25T02:31:13.593Z,2.62
2022-11-25T02:34:49.948Z,2.64
2022-11-25T02:38:20.876Z,2.62
2022-11-25T02:41:53.289Z,2.60
2022-11-25T02:45:27.923Z,2.56
2022-11-25T02:49:11.687Z,2.51
2022-11-25T02:52:41.065Z,2.46
2022-11-25T02:56:10.858Z,2.41
2022-11-25T02:59:38.829Z,2.38
2022-11-25T03:03:06.552Z,2.40
2022-11-25T03:06:41.255Z,2.39
2022-11-25T03:10:10.380Z,2.46
2022-11-25T03:13:40.395Z,2.48
2022-11-25T03:17:11.124Z,2.50
2022-11-25T03:20:39.951Z,2.51
2022-11-25T03:24:10.956Z,2.55
2022-11-25T03:27:42.817Z,2.63
2022-11-25T03:31:13.504Z,2.69
2022-11-25T03:34:43.061Z,2.69
2022-11-25T03:38:10.581Z,2.67
2022-11-25T03:41:44.514Z,2.64
2022-11-25T03:45:15.289Z,2.61
2022-11-25T03:48:44.330Z,2.58
2022-11-25T03:52:12.086Z,2.55
2022-11-25T03:55:41.174Z,2.50
2022-11-25T03:59:09.462Z,2.50
2022-11-25T04:02:37.016Z,2.49
2022-11-25T04:06:04.565Z,2.48
2022-11-25T04:09:35.372Z,2.46
2022-11-25T04:13:07.378Z,2.42
2022-11-25T04:16:41.053Z,2.39
2022-11-25T04:20:14.315Z,2.40
2022-11-25T04:23:45.170Z,2.41
2022-11-25T04:27:13.038Z,2.43
2022-11-25T04:30:42.376Z,2.49
2022-11-25T04:34:10.961Z,2.56
2022-11-25T04:37:44.197Z,2.66
2022-11-25T04:41:18.044Z,2.72
2022-11-25T04:45:01.041Z,2.74
2022-11-25T04:48:32.851Z,2.72
2022-11-25T04:52:00.090Z,2.74
2022-11-25T04:55:30.182Z,2.76
2022-11-25T04:59:16.635Z,2.76
2022-11-25T05:02:47.489Z,2.74
2022-11-25T05:06:22.579Z,2.71
2022-11-25T05:09:49.982Z,2.67
2022-11-25T05:13:25.044Z,2.64
2022-11-25T05:16:52.469Z,2.61
2022-11-25T05:20:27.427Z,2.58
2022-11-25T05:23:56.958Z,2.57
2022-11-25T05:27:26.574Z,2.59
2022-11-25T05:30:54.255Z,2.63
2022-11-25T05:34:21.036Z,2.66
2022-11-25T05:37:48.253Z,2.71
2022-11-25T05:41:15.043Z,2.78
2022-11-25T05:44:43.279Z,2.86
2022-11-25T05:48:10.285Z,2.89
2022-11-25T05:51:40.351Z,2.90
2022-11-25T05:55:10.694Z,2.89
2022-11-25T05:58:38.874Z,2.85
2022-11-25T06:02:06.668Z,2.81
2022-11-25T06:05:35.847Z,2.75
2022-11-25T06:09:03.289Z,2.69
2022-11-25T06:12:30.621Z,2.65
2022-11-25T06:16:03.543Z,2.60
2022-11-25T06:19:34.502Z,2.52
2022-11-25T06:23:02.430Z,2.47
2022-11-25T06:26:32.865Z,2.42
2022-11-25T06:30:01.103Z,2.39
2022-11-25T06:33:27.748Z,2.40
2022-11-25T06:36:55.816Z,2.42
2022-11-25T06:40:22.861Z,2.45
2022-11-25T06:43:51.330Z,2.49
2022-11-25T06:47:18.585Z,2.54
2022-11-25T06:50:45.424Z,2.55
2022-11-25T06:54:12.660Z,2.55
2022-11-25T06:57:39.374Z,2.56
2022-11-25T07:01:15.868Z,2.59
2022-11-25T07:04:44.944Z,2.64
2022-11-25T07:08:11.746Z,2.66
2022-11-25T07:11:41.674Z,2.68
2022-11-25T07:15:10.080Z,2.68
2022-11-25T07:18:39.898Z,2.65
2022-11-25T07:22:07.430Z,2.62
2022-11-25T07:25:38.417Z,2.57
2022-11-25T07:29:23.340Z,2.50
2022-11-25T07:32:58.407Z,2.44
2022-11-25T07:36:25.492Z,2.37
2022-11-25T07:39:52.121Z,2.35
2022-11-25T07:43:24.248Z,2.34
2022-11-25T07:46:52.290Z,2.33
2022-11-25T07:50:19.450Z,2.35
2022-11-25T07:53:57.053Z,2.39
2022-11-25T07:57:36.950Z,2.44
2022-11-25T08:01:09.770Z,2.53
2022-11-25T08:04:39.904Z,2.60
2022-11-25T08:08:06.869Z,2.63
2022-11-25T08:11:35.200Z,2.67
2022-11-25T08:15:06.042Z,2.70
2022-11-25T08:18:35.455Z,2.69
2022-11-25T08:22:02.225Z,2.65
2022-11-25T08:25:30.022Z,2.60
2022-11-25T08:28:58.051Z,2.58
2022-11-25T08:32:25.006Z,2.56
2022-11-25T08:35:58.303Z,2.53
2022-11-25T08:43:12.628Z,2.43
2022-11-25T08:46:41.120Z,2.40
2022-11-25T08:50:10.616Z,2.38
2022-11-25T08:53:38.613Z,2.35
2022-11-25T08:57:09.610Z,2.40
2022-11-25T09:00:36.477Z,2.44
2022-11-25T09:04:02.916Z,2.48
2022-11-25T09:07:30.944Z,2.51
2022-11-25T09:10:57.791Z,2.59
2022-11-25T09:14:25.296Z,2.68
2022-11-25T09:17:58.662Z,2.75
2022-11-25T09:21:26.125Z,2.79
2022-11-25T09:24:53.088Z,2.81
2022-11-25T09:28:19.676Z,2.78
2022-11-25T09:31:51.411Z,2.74
2022-11-25T09:35:21.976Z,2.69
2022-11-25T09:38:49.407Z,2.66
2022-11-25T09:42:51.814Z,2.62
2022-11-25T09:46:46.263Z,2.54
2022-11-25T09:50:22.283Z,2.46
2022-11-25T09:53:54.867Z,2.43
2022-11-25T09:57:27.700Z,2.40
2022-11-25T10:00:55.592Z,2.41
2022-11-25T10:04:26.935Z,2.41
2022-11-25T10:07:59.566Z,2.42
2022-11-25T10:11:36.404Z,2.47
2022-11-25T10:15:06.321Z,2.50
2022-11-25T10:18:40.969Z,2.56
2022-11-25T10:22:19.380Z,2.63
2022-11-25T10:25:51.884Z,2.69
2022-11-25T10:29:27.671Z,2.75
2022-11-25T10:33:04.984Z,2.80
2022-11-25T10:36:34.939Z,2.77
2022-11-25T10:40:01.848Z,2.72
2022-11-25T10:43:31.945Z,2.69
2022-11-25T10:47:17.517Z,2.66
2022-11-25T10:50:55.438Z,2.64
2022-11-25T10:54:27.635Z,2.59
2022-11-25T10:57:58.017Z,2.56
2022-11-25T11:01:26.539Z,2.54
2022-11-25T11:05:01.696Z,2.52
2022-11-25T11:08:38.364Z,2.51
2022-11-25T11:12:14.947Z,2.49
2022-11-25T11:15:49.955Z,2.51
2022-11-25T11:19:29.394Z,2.55
2022-11-25T11:23:10.477Z,2.60
2022-11-25T11:26:40.173Z,2.63
2022-11-25T11:30:15.811Z,2.69
2022-11-25T11:33:51.498Z,2.76
2022-11-25T11:37:43.924Z,2.84
2022-11-25T11:41:18.574Z,2.88
2022-11-25T11:45:00.628Z,2.87
2022-11-25T11:48:40.312Z,2.81
2022-11-25T11:52:13.157Z,2.77
2022-11-25T11:56:19.298Z,2.73
2022-11-25T11:59:53.783Z,2.74
2022-11-25T12:03:23.402Z,2.76
2022-11-25T12:07:04.266Z,2.74
2022-11-25T12:10:35.151Z,2.74
2022-11-25T12:14:07.030Z,2.74
2022-11-25T12:17:37.352Z,2.76
2022-11-25T12:21:06.558Z,2.78
2022-11-25T12:24:43.507Z,2.81
2022-11-25T12:28:14.286Z,2.86
2022-11-25T12:31:46.093Z,2.88
2022-11-25T12:35:23.400Z,2.92
2022-11-25T12:38:56.299Z,2.98
2022-11-25T12:42:29.943Z,2.98
2022-11-25T12:46:09.578Z,2.98
2022-11-25T12:49:46.959Z,3.00
2022-11-25T12:53:24.495Z,3.04
2022-11-25T12:57:09.319Z,3.07
2022-11-25T13:00:55.219Z,3.06
2022-11-25T13:04:38.445Z,3.03
2022-11-25T13:08:19.889Z,3.00
2022-11-25T13:12:06.036Z,2.94
2022-11-25T13:15:38.520Z,2.89
2022-11-25T13:19:13.519Z,2.83
2022-11-25T13:22:40.101Z,2.80
2022-11-25T13:26:41.013Z,2.78
2022-11-25T13:30:39.410Z,2.74
2022-11-25T13:34:28.305Z,2.73
2022-11-25T13:37:54.984Z,2.73
2022-11-25T13:41:38.752Z,2.73
2022-11-25T13:45:26.355Z,2.81
2022-11-25T13:48:54.514Z,2.90
2022-11-25T13:52:39.576Z,2.93
2022-11-25T13:56:27.049Z,2.95
2022-11-25T14:00:01.366Z,2.92
2022-11-25T14:03:54.373Z,2.91
2022-11-25T14:07:34.223Z,2.88
2022-11-25T14:11:23.828Z,2.86
2022-11-25T14:15:20.782Z,2.85
2022-11-25T14:19:49.612Z,2.81
2022-11-25T14:23:32.259Z,2.74
2022-11-25T14:27:03.566Z,2.68
2022-11-25T14:30:31.898Z,2.64
2022-11-25T14:34:05.047Z,2.60
2022-11-25T14:37:39.354Z,2.57
2022-11-25T14:41:14.587Z,2.56
2022-11-25T14:44:47.812Z,2.56
2022-11-25T14:48:19.169Z,2.59
2022-11-25T14:51:51.290Z,2.64
2022-11-25T14:55:29.980Z,2.68
2022-11-25T14:58:59.208Z,2.72
2022-11-25T15:02:33.532Z,2.72
2022-11-25T15:06:04.928Z,2.73
2022-11-25T15:09:33.912Z,2.76
2022-11-25T15:13:01.966Z,2.76
2022-11-25T15:16:38.629Z,2.74
2022-11-25T15:20:19.141Z,2.70
2022-11-25T15:23:50.926Z,2.65
2022-11-25T15:27:26.492Z,2.59
2022-11-25T15:31:11.278Z,2.52
2022-11-25T15:34:36.914Z,2.46
2022-11-25T15:38:18.146Z,2.38
2022-11-25T15:41:51.656Z,2.33
2022-11-25T15:45:24.431Z,2.28
2022-11-25T15:49:06.003Z,2.19
2022-11-25T15:52:38.505Z,2.14
2022-11-25T15:56:12.146Z,2.14
2022-11-25T15:59:57.920Z,2.17
2022-11-25T16:03:25.305Z,2.23
2022-11-25T16:07:02.754Z,2.31
2022-11-25T16:10:34.550Z,2.39
2022-11-25T16:14:21.601Z,2.47
2022-11-25T16:18:02.638Z,2.53
2022-11-25T16:21:53.929Z,2.56
2022-11-25T16:25:35.623Z,2.56
2022-11-25T16:29:15.712Z,2.52
2022-11-25T16:32:45.642Z,2.43
2022-11-25T16:36:15.382Z,2.39
2022-11-25T16:39:46.065Z,2.28
2022-11-25T16:43:23.020Z,2.27
2022-11-25T16:46:52.985Z,2.21
2022-11-25T16:50:22.896Z,2.14
2022-11-25T16:53:54.160Z,2.07
2022-11-25T16:57:26.852Z,2.01
2022-11-25T17:01:01.192Z,1.99
2022-11-25T17:04:39.673Z,1.98
2022-11-25T17:08:09.434Z,2.00
2022-11-25T17:11:46.123Z,2.03
2022-11-25T17:15:18.826Z,2.07
2022-11-25T17:18:46.791Z,2.14
2022-11-25T17:22:20.607Z,2.19
2022-11-25T17:25:52.413Z,2.22
2022-11-25T17:29:28.911Z,2.28
2022-11-25T17:33:01.982Z,2.31
2022-11-25T17:36:32.888Z,2.27
2022-11-25T17:40:01.859Z,2.21
2022-11-25T17:43:34.809Z,2.18
2022-11-25T17:47:02.152Z,2.16
2022-11-25T17:50:30.229Z,2.13
2022-11-25T17:53:58.378Z,2.10
2022-11-25T17:57:29.356Z,2.06
2022-11-25T18:00:56.541Z,1.98
2022-11-25T18:04:27.403Z,1.90
2022-11-25T18:07:56.976Z,1.85
2022-11-25T18:11:28.869Z,1.80
2022-11-25T18:14:57.006Z,1.76
2022-11-25T18:18:26.167Z,1.77
2022-11-25T18:22:01.311Z,1.79
2022-11-25T18:25:32.347Z,1.82
2022-11-25T18:29:08.537Z,1.84
2022-11-25T18:32:42.976Z,1.91
2022-11-25T18:36:24.433Z,2.01
2022-11-25T18:40:05.986Z,2.09
2022-11-25T18:47:35.360Z,2.17
2022-11-25T18:51:04.409Z,2.21
2022-11-25T18:54:39.968Z,2.21
2022-11-25T18:58:17.755Z,2.20
2022-11-25T19:01:49.599Z,2.16
2022-11-25T19:05:24.370Z,2.08
2022-11-25T19:08:53.543Z,2.04
2022-11-25T19:12:36.768Z,2.01
2022-11-25T19:16:26.275Z,1.93
2022-11-25T19:19:53.692Z,1.87
2022-11-25T19:23:29.849Z,1.79
2022-11-25T19:26:58.399Z,1.73
2022-11-25T19:30:40.253Z,1.73
2022-11-25T19:34:08.749Z,1.73
2022-11-25T19:37:39.198Z,1.76
2022-11-25T19:41:11.050Z,1.77
2022-11-25T19:44:38.776Z,1.78
2022-11-25T19:48:10.351Z,1.83
2022-11-25T19:51:42.902Z,1.86
2022-11-25T19:55:18.948Z,1.94
2022-11-25T19:58:46.325Z,1.98
2022-11-25T20:02:17.818Z,2.02
2022-11-25T20:05:51.775Z,2.04
2022-11-25T20:09:19.842Z,2.03
2022-11-25T20:12:47.799Z,1.99
2022-11-25T20:16:20.315Z,1.93
2022-11-25T20:19:52.222Z,1.84
2022-11-25T20:23:24.721Z,1.72
2022-11-25T20:26:54.708Z,1.65
2022-11-25T20:30:24.911Z,1.60
2022-11-25T20:33:52.656Z,1.57
2022-11-25T20:37:26.145Z,1.50
2022-11-25T20:40:58.560Z,1.45
2022-11-25T20:44:30.445Z,1.42
2022-11-25T20:48:00.354Z,1.40
2022-11-25T20:51:28.302Z,1.44
2022-11-25T20:54:58.447Z,1.48
2022-11-25T20:58:30.544Z,1.52
2022-11-25T21:01:59.358Z,1.56
2022-11-25T21:05:31.733Z,1.61
2022-11-25T21:09:01.352Z,1.63
2022-11-25T21:12:51.220Z,1.62
2022-11-25T21:16:20.099Z,1.56
2022-11-25T21:19:47.150Z,1.54
2022-11-25T21:23:24.832Z,1.49
2022-11-25T21:26:53.457Z,1.44
2022-11-25T21:30:24.712Z,1.38
2022-11-25T21:33:56.008Z,1.33
2022-11-25T21:37:33.319Z,1.27
2022-11-25T21:41:02.167Z,1.20
2022-11-25T21:44:42.204Z,1.11
2022-11-25T21:48:18.285Z,1.06
2022-11-25T21:51:47.076Z,1.03
2022-11-25T21:55:15.588Z,0.99
2022-11-25T21:58:45.295Z,0.98
2022-11-25T22:02:20.329Z,0.98
2022-11-25T22:05:47.083Z,1.00
2022-11-25T22:09:14.030Z,1.04
2022-11-25T22:12:43.417Z,1.08
2022-11-25T22:16:14.762Z,1.12
2022-11-25T22:19:47.938Z,1.15
2022-11-25T22:23:18.433Z,1.17
2022-11-25T22:26:47.171Z,1.17
2022-11-25T22:30:20.911Z,1.14
2022-11-25T22:33:48.650Z,1.09
2022-11-25T22:37:49.343Z,1.04
2022-11-25T22:41:23.471Z,0.98
2022-11-25T22:44:52.997Z,0.92
2022-11-25T22:48:27.754Z,0.85
2022-11-25T22:51:55.952Z,0.78
2022-11-25T22:55:26.145Z,0.73
2022-11-25T22:59:00.327Z,0.67
2022-11-25T23:02:34.410Z,0.60
2022-11-25T23:06:02.160Z,0.57
2022-11-25T23:09:29.722Z,0.52
2022-11-25T23:12:57.110Z,0.50
2022-11-25T23:16:24.122Z,0.50
2022-11-25T23:19:52.642Z,0.52
2022-11-25T23:23:21.063Z,0.56
2022-11-25T23:27:03.241Z,0.61
2022-11-25T23:30:31.216Z,0.65
2022-11-25T23:33:58.354Z,0.67
2022-11-25T23:37:25.445Z,0.69
2022-11-25T23:40:52.077Z,0.69
2022-11-25T23:44:24.241Z,0.67
2022-11-25T23:47:54.379Z,0.66
2022-11-25T23:51:22.352Z,0.60
2022-11-25T23:54:51.492Z,0.54
2022-11-25T23:58:20.946Z,0.48
